createdAt,value
2018-08-03T00:01:51.458Z,8.52
2018-08-03T00:04:20.297Z,9.30
2018-08-03T00:06:49.157Z,8.20
2018-08-03T00:09:18.762Z,10.07
2018-08-03T00:11:47.604Z,9.18
2018-08-03T00:14:16.458Z,9.07
2018-08-03T00:16:45.297Z,8.18
2018-08-03T00:19:14.130Z,9.13
2018-08-03T00:21:42.970Z,8.30
2018-08-03T00:24:11.813Z,9.48
2018-08-03T00:26:40.652Z,9.38
2018-08-03T00:29:09.503Z,9.18
2018-08-03T00:31:38.342Z,9.82
2018-08-03T00:34:07.192Z,9.88
2018-08-03T00:36:36.034Z,9.10
2018-08-03T00:39:05.620Z,9.75
2018-08-03T00:41:34.481Z,10.37
2018-08-03T00:44:03.313Z,8.82
2018-08-03T00:46:32.178Z,8.50
2018-08-03T00:49:01.022Z,10.85
2018-08-03T00:51:29.873Z,9.27
2018-08-03T00:53:58.719Z,9.23
2018-08-03T00:56:27.572Z,9.43
2018-08-03T00:58:56.410Z,8.65
2018-08-03T01:01:25.245Z,8.50
2018-08-03T01:03:54.092Z,9.45
2018-08-03T01:06:22.929Z,8.48
2018-08-03T01:08:51.785Z,8.63
2018-08-03T01:11:20.636Z,9.27
2018-08-03T01:13:49.478Z,8.85
2018-08-03T01:16:18.330Z,9.05
2018-08-03T01:18:47.158Z,9.77
2018-08-03T01:21:16.738Z,8.90
2018-08-03T01:23:45.565Z,9.73
2018-08-03T01:26:15.151Z,8.60
2018-08-03T01:28:43.994Z,8.85
2018-08-03T01:31:12.836Z,8.38
2018-08-03T01:33:41.688Z,9.02
2018-08-03T01:36:10.528Z,7.85
2018-08-03T01:38:40.104Z,8.40
2018-08-03T01:41:08.938Z,8.32
2018-08-03T01:43:37.781Z,8.65
2018-08-03T01:46:06.626Z,8.65
2018-08-03T01:48:35.473Z,8.45
2018-08-03T01:51:04.322Z,7.97
2018-08-03T01:53:33.153Z,7.80
2018-08-03T01:56:02.747Z,8.15
2018-08-03T01:58:31.578Z,7.65
2018-08-03T02:01:00.423Z,8.10
2018-08-03T02:03:29.264Z,7.53
2018-08-03T02:05:58.114Z,8.00
2018-08-03T02:08:27.690Z,7.70
2018-08-03T02:10:56.527Z,8.73
2018-08-03T02:13:25.370Z,8.65
2018-08-03T02:15:54.212Z,8.98
2018-08-03T02:18:23.048Z,8.63
2018-08-03T02:20:51.890Z,8.23
2018-08-03T02:23:20.725Z,7.60
2018-08-03T02:25:49.565Z,7.35
2018-08-03T02:28:18.405Z,8.00
2018-08-03T02:30:47.247Z,8.27
2018-08-03T02:33:16.097Z,8.27
2018-08-03T02:35:44.939Z,7.30
2018-08-03T02:38:13.782Z,7.75
2018-08-03T02:40:42.648Z,8.23
2018-08-03T02:43:11.490Z,9.18
2018-08-03T02:45:40.335Z,9.10
2018-08-03T02:48:09.171Z,8.43
2018-08-03T02:50:38.003Z,8.57
2018-08-03T02:53:06.847Z,8.93
2018-08-03T02:55:35.680Z,8.90
2018-08-03T02:58:04.529Z,8.48
2018-08-03T03:00:33.383Z,8.80
2018-08-03T03:03:02.245Z,7.60
2018-08-03T03:05:31.090Z,8.45
2018-08-03T03:07:59.928Z,8.02
2018-08-03T03:10:28.824Z,7.55
2018-08-03T03:12:57.655Z,7.57
2018-08-03T03:15:26.492Z,7.45
2018-08-03T03:17:55.321Z,7.40
2018-08-03T03:20:24.162Z,7.68
2018-08-03T03:22:53.006Z,8.38
2018-08-03T03:25:22.582Z,8.00
2018-08-03T03:27:51.426Z,7.37
2018-08-03T03:30:20.263Z,7.80
2018-08-03T03:32:49.114Z,7.85
2018-08-03T03:35:17.953Z,7.72
2018-08-03T03:37:46.784Z,7.60
2018-08-03T03:40:15.622Z,8.27
2018-08-03T03:42:44.467Z,7.15
2018-08-03T03:45:13.305Z,7.93
2018-08-03T03:47:42.144Z,7.32
2018-08-03T03:50:10.978Z,6.90
2018-08-03T03:52:39.832Z,6.78
2018-08-03T03:55:08.669Z,7.85
2018-08-03T03:57:37.502Z,6.62
2018-08-03T04:00:07.098Z,7.70
2018-08-03T04:02:35.929Z,6.75
2018-08-03T04:05:04.771Z,6.87
2018-08-03T04:07:33.619Z,6.45
2018-08-03T04:10:02.446Z,6.87
2018-08-03T04:12:31.277Z,6.50
2018-08-03T04:15:00.858Z,6.72
2018-08-03T04:17:29.703Z,6.87
2018-08-03T04:19:58.535Z,6.80
2018-08-03T04:22:27.393Z,7.68
2018-08-03T04:24:56.229Z,7.80
2018-08-03T04:27:25.819Z,7.85
2018-08-03T04:29:54.669Z,8.27
2018-08-03T04:32:23.509Z,7.87
2018-08-03T04:34:52.359Z,9.75
2018-08-03T04:37:21.203Z,8.98
2018-08-03T04:39:50.056Z,7.97
2018-08-03T04:42:18.932Z,8.73
2018-08-03T04:44:47.734Z,9.02
2018-08-03T04:47:16.566Z,8.82
2018-08-03T04:49:45.416Z,9.95
2018-08-03T04:52:14.255Z,10.35
2018-08-03T04:54:43.129Z,9.23
2018-08-03T04:57:11.952Z,9.45
2018-08-03T04:59:40.793Z,10.70
2018-08-03T05:02:10.391Z,8.93
2018-08-03T05:04:39.279Z,8.60
2018-08-03T05:07:08.072Z,9.15
2018-08-03T05:09:36.931Z,9.85
2018-08-03T05:12:05.767Z,8.55
2018-08-03T05:14:34.611Z,9.52
2018-08-03T05:17:03.449Z,9.95
2018-08-03T05:19:33.023Z,9.15
2018-08-03T05:22:01.868Z,9.57
2018-08-03T05:24:30.718Z,9.88
2018-08-03T05:26:59.566Z,9.70
2018-08-03T05:29:28.411Z,10.07
2018-08-03T05:31:57.280Z,10.50
2018-08-03T05:34:26.128Z,10.85
2018-08-03T05:36:54.969Z,10.63
2018-08-03T05:39:24.413Z,10.25
2018-08-03T05:41:53.251Z,10.07
2018-08-03T05:44:22.109Z,11.70
2018-08-03T05:46:50.949Z,10.70
2018-08-03T05:49:19.811Z,10.80
2018-08-03T05:51:48.656Z,11.68
2018-08-03T05:54:17.512Z,11.10
2018-08-03T05:56:47.102Z,10.95
2018-08-03T05:59:15.952Z,11.18
2018-08-03T06:01:44.803Z,11.05
2018-08-03T06:04:13.674Z,10.60
2018-08-03T06:06:43.266Z,11.80
2018-08-03T06:09:12.112Z,12.10
2018-08-03T06:11:40.961Z,11.50
2018-08-03T06:14:09.816Z,11.60
2018-08-03T06:16:38.657Z,11.38
2018-08-03T06:19:07.510Z,12.30
2018-08-03T06:21:36.343Z,10.80
2018-08-03T06:24:05.213Z,10.57
2018-08-03T06:26:34.053Z,11.98
2018-08-03T06:29:02.895Z,11.27
2018-08-03T06:31:31.735Z,11.12
2018-08-03T06:34:00.587Z,10.88
2018-08-03T06:36:29.451Z,10.65
2018-08-03T06:38:58.299Z,11.23
2018-08-03T06:41:27.161Z,11.48
2018-08-03T06:43:56.012Z,12.15
2018-08-03T06:46:24.920Z,12.00
2018-08-03T06:48:53.738Z,11.18
2018-08-03T06:51:22.586Z,11.68
2018-08-03T06:53:52.200Z,10.90
2018-08-03T06:56:21.043Z,10.65
2018-08-03T06:58:49.888Z,9.90
2018-08-03T07:01:18.728Z,11.30
2018-08-03T07:03:47.572Z,10.82
2018-08-03T07:06:16.416Z,11.23
2018-08-03T07:08:45.276Z,10.95
2018-08-03T07:11:14.883Z,11.25
2018-08-03T07:13:44.306Z,11.68
2018-08-03T07:16:13.152Z,12.50
2018-08-03T07:18:41.997Z,11.60
2018-08-03T07:21:11.588Z,10.80
2018-08-03T07:23:40.646Z,10.63
2018-08-03T07:26:09.461Z,10.52
2018-08-03T07:28:38.310Z,10.85
2018-08-03T07:31:07.170Z,11.40
2018-08-03T07:33:36.009Z,10.60
2018-08-03T07:36:04.856Z,11.30
2018-08-03T07:38:33.697Z,11.25
2018-08-03T07:41:02.552Z,11.05
2018-08-03T07:43:31.424Z,11.45
2018-08-03T07:46:00.992Z,10.35
2018-08-03T07:48:29.857Z,10.20
2018-08-03T07:50:58.698Z,9.70
2018-08-03T07:53:27.535Z,9.63
2018-08-03T07:55:56.393Z,10.25
2018-08-03T07:58:25.236Z,9.32
2018-08-03T08:00:54.079Z,8.38
2018-08-03T08:03:22.909Z,9.50
2018-08-03T08:05:51.765Z,10.18
2018-08-03T08:08:20.600Z,9.60
2018-08-03T08:10:49.436Z,8.93
2018-08-03T08:13:18.271Z,8.20
2018-08-03T08:15:47.150Z,8.18
2018-08-03T08:18:15.982Z,8.95
2018-08-03T08:20:44.828Z,8.75
2018-08-03T08:23:13.663Z,8.70
2018-08-03T08:25:42.511Z,7.87
2018-08-03T08:28:11.346Z,7.75
2018-08-03T08:30:40.196Z,8.05
2018-08-03T08:33:09.032Z,8.38
2018-08-03T08:35:37.872Z,8.95
2018-08-03T08:38:06.711Z,9.50
2018-08-03T08:40:35.558Z,8.63
2018-08-03T08:43:04.403Z,8.27
2018-08-03T08:45:33.267Z,9.55
2018-08-03T08:48:02.858Z,9.05
2018-08-03T08:50:31.703Z,9.40
2018-08-03T08:53:00.549Z,9.30
2018-08-03T08:55:30.131Z,9.00
2018-08-03T08:57:58.974Z,9.30
2018-08-03T09:00:27.812Z,9.65
2018-08-03T09:02:56.673Z,9.23
2018-08-03T09:05:25.508Z,9.70
2018-08-03T09:07:55.177Z,9.50
2018-08-03T09:10:23.969Z,10.00
2018-08-03T09:12:52.833Z,8.98
2018-08-03T09:15:20.905Z,9.55
2018-08-03T09:17:49.769Z,9.55
2018-08-03T09:20:18.624Z,9.25
2018-08-03T09:22:47.474Z,8.30
2018-08-03T09:25:16.308Z,8.50
2018-08-03T09:27:45.146Z,8.50
2018-08-03T09:30:14.006Z,8.70
2018-08-03T09:32:42.855Z,8.70
2018-08-03T09:35:11.707Z,9.02
2018-08-03T09:37:40.539Z,8.23
2018-08-03T09:40:09.387Z,8.15
2018-08-03T09:42:38.223Z,8.18
2018-08-03T09:45:07.080Z,8.55
2018-08-03T09:47:35.970Z,8.90
2018-08-03T09:50:05.525Z,8.18
2018-08-03T09:52:34.373Z,8.13
2018-08-03T09:55:03.218Z,9.00
2018-08-03T09:57:32.060Z,8.15
2018-08-03T10:00:00.901Z,8.20
2018-08-03T10:02:29.747Z,8.40
2018-08-03T10:04:58.592Z,8.40
2018-08-03T10:07:27.524Z,8.43
2018-08-03T10:09:56.276Z,8.70
2018-08-03T10:12:25.114Z,8.57
2018-08-03T10:14:53.957Z,7.75
2018-08-03T10:17:22.921Z,7.05
2018-08-03T10:19:51.642Z,8.02
2018-08-03T10:22:20.540Z,7.28
2018-08-03T10:24:49.318Z,7.05
2018-08-03T10:27:18.186Z,7.97
2018-08-03T10:29:47.093Z,7.87
2018-08-03T10:32:15.881Z,7.30
2018-08-03T10:34:44.727Z,7.05
2018-08-03T10:37:14.315Z,6.60
2018-08-03T10:39:43.175Z,7.15
2018-08-03T10:42:12.009Z,5.97
2018-08-03T10:44:40.853Z,6.35
2018-08-03T10:47:09.732Z,6.40
2018-08-03T10:49:38.533Z,6.18
2018-08-03T10:52:07.391Z,5.78
2018-08-03T10:54:36.975Z,6.30
2018-08-03T10:57:05.813Z,6.47
2018-08-03T10:59:34.664Z,6.47
2018-08-03T11:02:04.243Z,6.65
2018-08-03T11:04:33.074Z,6.60
2018-08-03T11:07:01.934Z,6.22
2018-08-03T11:09:30.782Z,6.45
2018-08-03T11:11:59.635Z,6.30
2018-08-03T11:14:28.475Z,6.60
2018-08-03T11:16:57.320Z,6.47
2018-08-03T11:19:26.915Z,6.30
2018-08-03T11:21:56.496Z,6.30
2018-08-03T11:24:25.369Z,6.32
2018-08-03T11:26:54.205Z,6.00
2018-08-03T11:29:23.051Z,5.78
2018-08-03T11:31:51.904Z,6.43
2018-08-03T11:34:20.748Z,5.65
2018-08-03T11:36:49.594Z,5.82
2018-08-03T11:39:18.434Z,5.22
2018-08-03T11:41:48.016Z,5.65
2018-08-03T11:44:16.878Z,5.55
2018-08-03T11:46:45.720Z,5.32
2018-08-03T11:49:14.561Z,5.65
2018-08-03T11:51:43.403Z,5.80
2018-08-03T11:54:12.252Z,5.95
2018-08-03T11:56:41.853Z,6.18
2018-08-03T11:59:10.689Z,6.35
2018-08-03T12:01:39.531Z,5.75
2018-08-03T12:04:08.377Z,6.00
2018-08-03T12:06:37.303Z,6.22
2018-08-03T12:09:06.055Z,5.60
2018-08-03T12:11:34.919Z,6.00
2018-08-03T12:14:04.503Z,6.28
2018-08-03T12:16:33.360Z,5.72
2018-08-03T12:19:02.194Z,5.78
2018-08-03T12:21:31.626Z,5.97
2018-08-03T12:24:00.474Z,5.82
2018-08-03T12:26:29.314Z,5.72
2018-08-03T12:28:58.167Z,6.35
2018-08-03T12:31:27.061Z,5.65
2018-08-03T12:33:55.871Z,5.90
2018-08-03T12:36:25.464Z,5.78
2018-08-03T12:38:55.053Z,5.62
2018-08-03T12:41:23.899Z,5.32
2018-08-03T12:43:52.737Z,5.45
2018-08-03T12:46:21.574Z,5.60
2018-08-03T12:48:50.411Z,5.25
2018-08-03T12:51:19.246Z,5.80
2018-08-03T12:53:48.104Z,6.10
2018-08-03T12:56:17.002Z,5.53
2018-08-03T12:58:45.838Z,5.33
2018-08-03T13:01:15.496Z,5.50
2018-08-03T13:03:44.294Z,5.28
2018-08-03T13:06:13.889Z,5.28
2018-08-03T13:08:42.701Z,5.47
2018-08-03T13:11:11.543Z,5.45
2018-08-03T13:13:40.377Z,5.12
2018-08-03T13:16:09.215Z,5.35
2018-08-03T13:18:38.072Z,5.05
2018-08-03T13:21:06.935Z,5.55
2018-08-03T13:23:35.770Z,5.30
2018-08-03T13:26:04.612Z,4.82
2018-08-03T13:28:34.219Z,5.00
2018-08-03T13:31:03.805Z,5.45
2018-08-03T13:33:32.647Z,5.47
2018-08-03T13:36:01.492Z,5.22
2018-08-03T13:38:30.366Z,4.97
2018-08-03T13:40:59.219Z,5.10
2018-08-03T13:43:28.062Z,4.80
2018-08-03T13:45:57.654Z,5.30
2018-08-03T13:48:26.510Z,4.80
2018-08-03T13:50:55.367Z,5.28
2018-08-03T13:53:24.214Z,5.30
2018-08-03T13:55:53.064Z,4.78
2018-08-03T13:58:21.914Z,5.32
2018-08-03T14:00:51.505Z,4.80
2018-08-03T14:03:20.350Z,5.43
2018-08-03T14:05:49.187Z,4.87
2018-08-03T14:08:18.786Z,5.03
2018-08-03T14:10:47.625Z,4.62
2018-08-03T14:13:16.488Z,5.05
2018-08-03T14:15:45.330Z,5.25
2018-08-03T14:18:14.179Z,4.97
2018-08-03T14:20:43.777Z,4.60
2018-08-03T14:23:13.367Z,4.90
2018-08-03T14:25:42.208Z,4.97
2018-08-03T14:28:11.057Z,4.87
2018-08-03T14:30:40.664Z,4.80
2018-08-03T14:33:09.511Z,5.05
2018-08-03T14:35:38.491Z,5.07
2018-08-03T14:38:07.289Z,4.87
2018-08-03T14:40:36.116Z,4.70
2018-08-03T14:43:04.965Z,4.35
2018-08-03T14:45:33.805Z,4.70
2018-08-03T14:48:03.449Z,4.65
2018-08-03T14:50:32.221Z,5.22
2018-08-03T14:53:01.079Z,4.55
2018-08-03T14:55:29.905Z,4.97
2018-08-03T14:57:58.772Z,4.65
2018-08-03T15:00:27.621Z,4.37
2018-08-03T15:02:56.455Z,4.85
2018-08-03T15:05:26.038Z,5.00
2018-08-03T15:07:54.939Z,4.55
2018-08-03T15:10:23.765Z,5.28
2018-08-03T15:12:52.623Z,5.10
2018-08-03T15:15:21.471Z,5.15
2018-08-03T15:17:50.324Z,4.82
2018-08-03T15:20:19.171Z,5.25
2018-08-03T15:22:50.335Z,4.70
2018-08-03T15:25:18.802Z,5.00
2018-08-03T15:27:47.637Z,4.90
2018-08-03T15:30:16.480Z,4.85
2018-08-03T15:32:45.313Z,4.62
2018-08-03T15:35:14.936Z,4.47
2018-08-03T15:37:43.768Z,4.80
2018-08-03T15:40:12.598Z,5.30
2018-08-03T15:42:42.179Z,4.53
2018-08-03T15:45:11.011Z,4.93
2018-08-03T15:47:39.856Z,4.78
2018-08-03T15:50:08.709Z,4.45
2018-08-03T15:52:37.597Z,5.40
2018-08-03T15:55:07.134Z,4.32
2018-08-03T15:57:35.975Z,5.28
2018-08-03T16:00:04.859Z,4.72
2018-08-03T16:02:33.710Z,5.18
2018-08-03T16:05:03.306Z,4.90
2018-08-03T16:07:32.151Z,4.65
2018-08-03T16:10:00.979Z,4.90
2018-08-03T16:12:29.814Z,4.70
2018-08-03T16:14:58.656Z,4.62
2018-08-03T16:17:27.495Z,4.53
2018-08-03T16:19:56.351Z,4.80
2018-08-03T16:22:25.797Z,4.90
2018-08-03T16:24:54.648Z,4.80
2018-08-03T16:27:24.067Z,4.78
2018-08-03T16:29:53.676Z,5.20
2018-08-03T16:32:23.262Z,5.00
2018-08-03T16:34:52.115Z,6.85
2018-08-03T16:37:20.958Z,4.80
2018-08-03T16:39:50.539Z,5.25
2018-08-03T16:42:19.383Z,4.85
2018-08-03T16:44:48.327Z,5.22
2018-08-03T16:47:17.806Z,4.85
2018-08-03T16:49:46.650Z,4.97
2018-08-03T16:52:15.490Z,5.03
2018-08-03T16:54:44.350Z,4.90
2018-08-03T16:57:13.181Z,4.70
2018-08-03T16:59:42.035Z,4.90
2018-08-03T17:02:10.866Z,4.82
2018-08-03T17:04:39.811Z,4.47
2018-08-03T17:07:08.680Z,4.80
2018-08-03T17:09:37.442Z,4.70
2018-08-03T17:12:06.292Z,4.70
2018-08-03T17:14:35.139Z,5.57
2018-08-03T17:17:04.010Z,5.30
2018-08-03T17:19:32.893Z,5.32
2018-08-03T17:22:01.693Z,5.12
2018-08-03T17:24:31.281Z,5.60
2018-08-03T17:27:00.121Z,5.50
2018-08-03T17:29:28.967Z,5.37
2018-08-03T17:31:57.832Z,5.00
2018-08-03T17:34:26.648Z,5.18
2018-08-03T17:36:56.283Z,4.62
2018-08-03T17:39:25.071Z,5.30
2018-08-03T17:41:53.926Z,5.10
2018-08-03T17:44:22.771Z,5.03
2018-08-03T17:46:51.619Z,5.45
2018-08-03T17:49:21.337Z,5.15
2018-08-03T17:51:50.060Z,5.12
2018-08-03T17:54:19.652Z,5.47
2018-08-03T17:56:49.228Z,5.50
2018-08-03T17:59:18.063Z,5.55
2018-08-03T18:01:47.657Z,5.53
2018-08-03T18:04:17.235Z,6.68
2018-08-03T18:06:46.081Z,10.32
2018-08-03T18:09:14.927Z,10.48
2018-08-03T18:11:43.763Z,7.47
2018-08-03T18:14:12.611Z,6.60
2018-08-03T18:16:41.470Z,6.25
2018-08-03T18:19:10.304Z,5.97
2018-08-03T18:21:39.204Z,5.80
2018-08-03T18:24:07.989Z,6.40
2018-08-03T18:26:36.838Z,5.75
2018-08-03T18:29:05.780Z,5.90
2018-08-03T18:31:34.552Z,5.10
2018-08-03T18:34:03.379Z,5.43
2018-08-03T18:36:32.235Z,5.30
2018-08-03T18:39:01.079Z,6.00
2018-08-03T18:41:29.928Z,5.00
2018-08-03T18:43:58.763Z,5.45
2018-08-03T18:46:27.616Z,4.82
2018-08-03T18:48:56.461Z,5.30
2018-08-03T18:51:25.352Z,5.22
2018-08-03T18:53:54.191Z,5.53
2018-08-03T18:56:23.030Z,4.93
2018-08-03T18:58:51.877Z,5.50
2018-08-03T19:01:20.714Z,5.62
2018-08-03T19:03:49.556Z,5.20
2018-08-03T19:06:18.439Z,5.10
2018-08-03T19:08:47.283Z,5.18
2018-08-03T19:11:16.119Z,5.50
2018-08-03T19:13:45.746Z,5.45
2018-08-03T19:16:14.555Z,5.43
2018-08-03T19:18:43.398Z,5.72
2018-08-03T19:21:12.239Z,4.95
2018-08-03T19:23:41.077Z,6.03
2018-08-03T19:26:09.919Z,5.40
2018-08-03T19:28:38.781Z,5.85
2018-08-03T19:31:07.621Z,5.80
2018-08-03T19:33:36.465Z,5.37
2018-08-03T19:36:05.330Z,5.25
2018-08-03T19:38:34.156Z,5.47
2018-08-03T19:41:03.002Z,5.68
2018-08-03T19:43:31.848Z,4.82
2018-08-03T19:46:00.720Z,5.28
2018-08-03T19:48:29.543Z,5.35
2018-08-03T19:50:58.388Z,5.60
2018-08-03T19:53:27.237Z,5.40
2018-08-03T19:55:56.092Z,6.00
2018-08-03T19:58:24.927Z,6.40
2018-08-03T20:00:53.785Z,6.10
2018-08-03T20:03:22.629Z,6.03
2018-08-03T20:05:51.479Z,5.95
2018-08-03T20:08:20.319Z,6.40
2018-08-03T20:10:49.174Z,5.97
2018-08-03T20:13:18.029Z,6.20
2018-08-03T20:15:46.907Z,6.30
2018-08-03T20:18:16.468Z,6.47
2018-08-03T20:20:45.335Z,6.55
2018-08-03T20:23:14.171Z,6.73
2018-08-03T20:25:43.750Z,6.20
2018-08-03T20:28:12.599Z,5.97
2018-08-03T20:30:41.504Z,6.68
2018-08-03T20:33:10.292Z,6.30
2018-08-03T20:35:39.142Z,6.70
2018-08-03T20:38:07.985Z,6.28
2018-08-03T20:40:36.842Z,6.70
2018-08-03T20:43:06.433Z,6.80
2018-08-03T20:45:35.272Z,7.10
2018-08-03T20:48:04.119Z,6.95
2018-08-03T20:50:33.726Z,6.43
2018-08-03T20:53:02.566Z,6.70
2018-08-03T20:55:31.463Z,6.80
2018-08-03T20:58:00.246Z,7.00
2018-08-03T21:00:29.113Z,6.57
2018-08-03T21:02:57.954Z,6.82
2018-08-03T21:05:26.801Z,6.68
2018-08-03T21:07:55.641Z,6.80
2018-08-03T21:10:24.524Z,7.00
2018-08-03T21:12:53.382Z,7.00
2018-08-03T21:15:22.216Z,6.45
2018-08-03T21:17:51.070Z,6.60
2018-08-03T21:20:19.906Z,6.60
2018-08-03T21:22:49.500Z,7.35
2018-08-03T21:25:19.081Z,6.57
2018-08-03T21:27:47.919Z,7.00
2018-08-03T21:30:16.814Z,6.62
2018-08-03T21:32:45.609Z,6.50
2018-08-03T21:35:14.464Z,6.43
2018-08-03T21:37:43.290Z,6.97
2018-08-03T21:40:12.132Z,7.40
2018-08-03T21:42:40.969Z,7.22
2018-08-03T21:45:09.817Z,6.37
2018-08-03T21:47:38.662Z,6.62
2018-08-03T21:50:07.500Z,7.00
2018-08-03T21:52:36.336Z,6.68
2018-08-03T21:55:05.168Z,7.15
2018-08-03T21:57:34.018Z,6.78
2018-08-03T22:00:02.869Z,7.47
2018-08-03T22:02:32.469Z,6.97
2018-08-03T22:05:01.318Z,7.15
2018-08-03T22:07:30.153Z,6.57
2018-08-03T22:09:58.994Z,7.18
2018-08-03T22:12:27.833Z,7.03
2018-08-03T22:14:56.674Z,6.72
2018-08-03T22:17:25.554Z,7.40
2018-08-03T22:19:54.361Z,7.00
2018-08-03T22:22:23.205Z,6.60
2018-08-03T22:25:05.153Z,6.37
2018-08-03T22:27:34.001Z,6.57
2018-08-03T22:30:02.846Z,6.37
2018-08-03T22:32:31.752Z,6.82
2018-08-03T22:35:00.532Z,6.35
2018-08-03T22:37:29.392Z,6.10
2018-08-03T22:39:58.245Z,6.80
2018-08-03T22:42:27.823Z,6.47
2018-08-03T22:44:56.661Z,7.25
2018-08-03T22:47:25.500Z,6.30
2018-08-03T22:49:54.370Z,6.70
2018-08-03T22:52:23.190Z,6.68
2018-08-03T22:54:52.026Z,6.12
2018-08-03T22:57:20.879Z,6.12
2018-08-03T22:59:49.721Z,5.90
2018-08-03T23:02:18.554Z,6.40
2018-08-03T23:04:47.405Z,6.03
2018-08-03T23:07:16.237Z,6.35
2018-08-03T23:09:45.073Z,6.30
2018-08-03T23:12:13.924Z,6.78
2018-08-03T23:14:42.759Z,6.47
2018-08-03T23:17:11.603Z,6.55
2018-08-03T23:19:40.444Z,6.20
2018-08-03T23:22:09.285Z,6.32
2018-08-03T23:24:38.137Z,6.22
2018-08-03T23:27:06.973Z,6.10
2018-08-03T23:29:36.565Z,6.57
2018-08-03T23:32:05.401Z,6.50
2018-08-03T23:34:34.249Z,6.07
2018-08-03T23:37:03.084Z,6.43
2018-08-03T23:39:31.922Z,6.75
2018-08-03T23:42:00.772Z,6.78
2018-08-03T23:44:29.621Z,7.25
2018-08-03T23:46:59.212Z,6.20
2018-08-03T23:49:28.806Z,5.80
2018-08-03T23:51:57.654Z,5.97
2018-08-03T23:54:26.484Z,6.30
2018-08-03T23:56:55.927Z,5.70
2018-08-03T23:59:24.768Z,6.25
